createdAt,value
2018-06-07T00:00:47.478Z,43.21
2018-06-07T00:03:13.409Z,43.51
2018-06-07T00:05:39.348Z,43.43
2018-06-07T00:08:05.296Z,43.27
2018-06-07T00:10:31.248Z,43.76
2018-06-07T00:12:57.176Z,44.43
2018-06-07T00:15:23.116Z,43.78
2018-06-07T00:17:49.083Z,43.92
2018-06-07T00:20:15.033Z,43.93
2018-06-07T00:22:41.027Z,44.54
2018-06-07T00:25:06.962Z,44.16
2018-06-07T00:27:33.003Z,44.46
2018-06-07T00:29:58.959Z,44.49
2018-06-07T00:32:24.896Z,44.46
2018-06-07T00:34:50.816Z,44.27
2018-06-07T00:37:16.789Z,44.93
2018-06-07T00:39:42.736Z,45.06
2018-06-07T00:42:08.712Z,45.18
2018-06-07T00:44:34.655Z,45.58
2018-06-07T00:47:00.611Z,45.48
2018-06-07T00:49:26.545Z,45.66
2018-06-07T00:51:52.496Z,44.87
2018-06-07T00:54:18.440Z,44.96
2018-06-07T00:56:44.403Z,45.77
2018-06-07T00:59:10.329Z,45.78
2018-06-07T01:01:36.265Z,46.48
2018-06-07T01:04:02.219Z,45.99
2018-06-07T01:06:28.165Z,45.75
2018-06-07T01:08:54.110Z,45.51
2018-06-07T01:11:20.057Z,45.50
2018-06-07T01:13:45.997Z,45.30
2018-06-07T01:16:11.948Z,46.06
2018-06-07T01:18:37.881Z,45.95
2018-06-07T01:21:03.892Z,45.00
2018-06-07T01:23:29.826Z,46.23
2018-06-07T01:25:55.776Z,45.82
2018-06-07T01:28:21.707Z,45.94
2018-06-07T01:30:47.725Z,45.41
2018-06-07T01:33:13.644Z,45.52
2018-06-07T01:35:39.603Z,45.21
2018-06-07T01:38:05.606Z,45.04
2018-06-07T01:40:31.568Z,45.45
2018-06-07T01:42:57.531Z,44.72
2018-06-07T01:45:23.491Z,45.09
2018-06-07T01:47:49.425Z,44.77
2018-06-07T01:50:15.370Z,45.13
2018-06-07T01:52:41.338Z,44.81
2018-06-07T01:55:07.288Z,44.55
2018-06-07T01:57:33.223Z,44.50
2018-06-07T01:59:59.149Z,45.40
2018-06-07T02:02:25.117Z,45.29
2018-06-07T02:04:51.080Z,45.98
2018-06-07T02:07:17.047Z,45.83
2018-06-07T02:09:43.000Z,45.10
2018-06-07T02:12:08.947Z,46.62
2018-06-07T02:14:34.931Z,46.44
2018-06-07T02:17:00.863Z,46.33
2018-06-07T02:19:26.862Z,47.17
2018-06-07T02:21:52.816Z,46.43
2018-06-07T02:24:18.880Z,46.56
2018-06-07T02:26:44.834Z,46.61
2018-06-07T02:29:10.785Z,47.04
2018-06-07T02:31:36.730Z,47.20
2018-06-07T02:34:02.693Z,47.00
2018-06-07T02:36:28.646Z,47.06
2018-06-07T02:38:54.638Z,46.59
2018-06-07T02:41:20.592Z,46.65
2018-06-07T02:43:46.521Z,46.58
2018-06-07T02:46:12.467Z,46.53
2018-06-07T02:48:38.399Z,46.24
2018-06-07T02:51:04.346Z,47.29
2018-06-07T02:53:30.299Z,46.95
2018-06-07T02:55:56.256Z,47.48
2018-06-07T02:58:22.186Z,47.07
2018-06-07T03:00:48.128Z,46.67
2018-06-07T03:03:14.085Z,46.90
2018-06-07T03:05:40.052Z,47.49
2018-06-07T03:08:05.983Z,47.34
2018-06-07T03:10:31.937Z,47.88
2018-06-07T03:12:57.874Z,46.83
2018-06-07T03:15:23.810Z,47.32
2018-06-07T03:17:49.755Z,47.21
2018-06-07T03:20:15.703Z,47.44
2018-06-07T03:22:41.661Z,47.57
2018-06-07T03:25:07.650Z,47.60
2018-06-07T03:27:33.644Z,47.40
2018-06-07T03:29:59.588Z,46.52
2018-06-07T03:32:25.542Z,48.00
2018-06-07T03:34:51.485Z,47.06
2018-06-07T03:37:17.409Z,47.27
2018-06-07T03:39:43.341Z,47.69
2018-06-07T03:42:09.294Z,47.85
2018-06-07T03:44:35.258Z,48.00
2018-06-07T03:47:01.203Z,47.57
2018-06-07T03:49:27.151Z,47.73
2018-06-07T03:51:53.101Z,47.74
2018-06-07T03:54:19.029Z,47.27
2018-06-07T03:56:44.989Z,47.60
2018-06-07T03:59:10.970Z,47.17
2018-06-07T04:01:36.925Z,47.25
2018-06-07T04:04:02.907Z,47.57
2018-06-07T04:06:28.849Z,46.66
2018-06-07T04:08:54.810Z,47.30
2018-06-07T04:11:20.774Z,47.74
2018-06-07T04:13:46.738Z,46.87
2018-06-07T04:16:12.758Z,46.16
2018-06-07T04:18:38.745Z,47.00
2018-06-07T04:21:04.705Z,46.91
2018-06-07T04:23:30.691Z,46.64
2018-06-07T04:25:56.650Z,46.16
2018-06-07T04:28:22.580Z,46.58
2018-06-07T04:30:48.565Z,46.38
2018-06-07T04:33:14.503Z,47.31
2018-06-07T04:35:40.475Z,47.24
2018-06-07T04:38:06.423Z,46.26
2018-06-07T04:40:32.364Z,46.82
2018-06-07T04:42:58.311Z,46.81
2018-06-07T04:45:24.407Z,47.03
2018-06-07T04:47:50.349Z,46.28
2018-06-07T04:50:16.285Z,46.66
2018-06-07T04:52:42.205Z,45.60
2018-06-07T04:55:08.132Z,45.42
2018-06-07T04:57:34.082Z,45.37
2018-06-07T05:00:00.023Z,43.97
2018-06-07T05:02:25.979Z,44.60
2018-06-07T05:04:51.945Z,44.57
2018-06-07T05:07:17.915Z,44.75
2018-06-07T05:09:43.867Z,44.62
2018-06-07T05:12:09.840Z,44.20
2018-06-07T05:14:35.808Z,44.53
2018-06-07T05:17:01.753Z,44.25
2018-06-07T05:19:27.709Z,43.37
2018-06-07T05:21:53.683Z,42.98
2018-06-07T05:24:19.631Z,43.35
2018-06-07T05:26:45.589Z,43.18
2018-06-07T05:29:11.548Z,43.50
2018-06-07T05:31:37.602Z,43.55
2018-06-07T05:34:03.537Z,42.67
2018-06-07T05:36:29.511Z,42.15
2018-06-07T05:38:55.478Z,42.04
2018-06-07T05:41:21.420Z,42.38
2018-06-07T05:43:47.356Z,42.10
2018-06-07T05:46:13.313Z,42.27
2018-06-07T05:48:39.259Z,42.02
2018-06-07T05:51:05.225Z,41.59
2018-06-07T05:53:31.180Z,41.06
2018-06-07T05:55:57.183Z,41.58
2018-06-07T05:58:23.112Z,41.59
2018-06-07T06:00:49.049Z,41.34
2018-06-07T06:03:15.004Z,41.52
2018-06-07T06:05:41.060Z,41.02
2018-06-07T06:08:06.943Z,41.42
2018-06-07T06:10:32.898Z,41.20
2018-06-07T06:12:58.855Z,40.74
2018-06-07T06:15:24.801Z,40.19
2018-06-07T06:17:50.764Z,40.07
2018-06-07T06:20:16.716Z,40.78
2018-06-07T06:22:42.682Z,40.40
2018-06-07T06:25:08.636Z,40.46
2018-06-07T06:27:34.587Z,39.70
2018-06-07T06:30:00.550Z,39.49
2018-06-07T06:32:26.572Z,39.42
2018-06-07T06:34:52.523Z,40.24
2018-06-07T06:37:18.480Z,39.73
2018-06-07T06:39:44.412Z,40.80
2018-06-07T06:42:10.393Z,39.19
2018-06-07T06:44:36.333Z,40.01
2018-06-07T06:47:02.305Z,39.34
2018-06-07T06:49:28.343Z,39.33
2018-06-07T06:51:54.236Z,39.74
2018-06-07T06:54:20.183Z,39.41
2018-06-07T06:56:46.160Z,39.31
2018-06-07T06:59:12.110Z,39.07
2018-06-07T07:01:38.044Z,38.95
2018-06-07T07:04:03.990Z,38.85
2018-06-07T07:06:29.952Z,38.77
2018-06-07T07:08:56.032Z,38.67
2018-06-07T07:11:21.976Z,38.29
2018-06-07T07:13:47.923Z,38.31
2018-06-07T07:16:13.863Z,39.19
2018-06-07T07:18:39.806Z,37.82
2018-06-07T07:21:05.752Z,38.30
2018-06-07T07:23:31.722Z,38.22
2018-06-07T07:25:57.679Z,38.99
2018-06-07T07:28:23.649Z,38.09
2018-06-07T07:30:49.593Z,38.31
2018-06-07T07:33:15.532Z,37.64
2018-06-07T07:35:41.472Z,38.14
2018-06-07T07:40:39.874Z,38.18
2018-06-07T07:43:05.881Z,38.28
2018-06-07T07:45:31.819Z,37.56
2018-06-07T07:47:57.798Z,38.64
2018-06-07T07:50:23.747Z,37.78
2018-06-07T07:52:49.734Z,38.39
2018-06-07T07:55:15.676Z,37.58
2018-06-07T07:57:41.652Z,37.98
2018-06-07T08:00:07.606Z,38.28
2018-06-07T08:02:33.557Z,38.45
2018-06-07T08:04:59.520Z,38.74
2018-06-07T08:07:25.492Z,38.46
2018-06-07T08:09:51.470Z,38.62
2018-06-07T08:12:17.398Z,37.86
2018-06-07T08:14:43.399Z,38.32
2018-06-07T08:17:09.361Z,39.67
2018-06-07T08:19:35.300Z,38.45
2018-06-07T08:22:01.272Z,38.02
2018-06-07T08:24:27.264Z,38.99
2018-06-07T08:26:53.209Z,39.86
2018-06-07T08:29:19.181Z,38.81
2018-06-07T08:31:45.138Z,40.65
2018-06-07T08:34:11.105Z,38.62
2018-06-07T08:36:37.063Z,39.88
2018-06-07T08:39:03.020Z,40.01
2018-06-07T08:41:28.980Z,40.93
2018-06-07T08:43:54.977Z,40.68
2018-06-07T08:46:20.921Z,39.58
2018-06-07T08:48:46.859Z,40.46
2018-06-07T08:51:12.807Z,40.68
2018-06-07T08:53:38.764Z,41.21
2018-06-07T08:56:04.730Z,41.86
2018-06-07T08:58:30.707Z,42.75
2018-06-07T09:00:56.669Z,41.81
2018-06-07T09:03:22.657Z,42.34
2018-06-07T09:05:48.593Z,42.27
2018-06-07T09:08:14.599Z,41.98
2018-06-07T09:10:40.582Z,41.19
2018-06-07T09:13:06.561Z,41.26
2018-06-07T09:15:32.511Z,42.59
2018-06-07T09:17:58.475Z,41.81
2018-06-07T09:20:24.439Z,41.16
2018-06-07T09:22:50.382Z,42.49
2018-06-07T09:25:16.320Z,41.76
2018-06-07T09:27:42.266Z,41.26
2018-06-07T09:30:08.239Z,41.44
2018-06-07T09:32:34.181Z,41.96
2018-06-07T09:35:00.152Z,42.11
2018-06-07T09:37:26.125Z,41.42
2018-06-07T09:39:52.105Z,41.24
2018-06-07T09:42:18.071Z,40.91
2018-06-07T09:44:44.019Z,41.90
2018-06-07T09:47:09.957Z,41.35
2018-06-07T09:49:35.924Z,41.94
2018-06-07T09:52:01.884Z,41.64
2018-06-07T09:54:27.870Z,42.22
2018-06-07T09:56:53.804Z,41.83
2018-06-07T09:59:19.811Z,41.81
2018-06-07T10:01:45.778Z,41.92
2018-06-07T10:04:11.780Z,41.22
2018-06-07T10:06:37.736Z,41.46
2018-06-07T10:09:03.716Z,42.91
2018-06-07T10:11:29.649Z,41.57
2018-06-07T10:13:55.629Z,40.26
2018-06-07T10:16:21.617Z,40.83
2018-06-07T10:18:47.556Z,40.24
2018-06-07T10:21:13.504Z,40.41
2018-06-07T10:23:39.444Z,39.77
2018-06-07T10:26:05.399Z,40.38
2018-06-07T10:28:31.366Z,39.88
2018-06-07T10:30:57.311Z,40.52
2018-06-07T10:33:23.243Z,39.54
2018-06-07T10:35:49.165Z,40.67
2018-06-07T10:38:15.117Z,40.15
2018-06-07T10:40:41.084Z,41.25
2018-06-07T10:43:07.007Z,40.16
2018-06-07T10:45:32.961Z,38.82
2018-06-07T10:47:59.000Z,39.34
2018-06-07T10:50:24.973Z,40.12
2018-06-07T10:52:50.927Z,40.52
2018-06-07T10:55:16.897Z,38.68
2018-06-07T10:57:42.824Z,39.73
2018-06-07T11:00:08.777Z,39.65
2018-06-07T11:02:34.696Z,39.25
2018-06-07T11:05:00.644Z,40.39
2018-06-07T11:07:26.605Z,39.86
2018-06-07T11:09:52.566Z,38.73
2018-06-07T11:12:18.505Z,40.28
2018-06-07T11:14:44.446Z,39.56
2018-06-07T11:17:10.380Z,38.60
2018-06-07T11:19:36.320Z,40.97
2018-06-07T11:22:02.273Z,40.94
2018-06-07T11:24:28.241Z,40.86
2018-06-07T11:26:54.219Z,41.41
2018-06-07T11:29:20.173Z,38.34
2018-06-07T11:31:46.162Z,36.85
2018-06-07T11:34:12.094Z,38.04
2018-06-07T11:36:38.071Z,39.00
2018-06-07T11:39:04.021Z,40.82
2018-06-07T11:41:29.964Z,41.32
2018-06-07T11:43:55.892Z,37.52
2018-06-07T11:46:21.918Z,36.64
2018-06-07T11:48:47.892Z,40.88
2018-06-07T11:51:13.833Z,41.22
2018-06-07T11:53:39.843Z,40.48
2018-06-07T11:56:05.786Z,41.10
2018-06-07T11:58:31.736Z,39.47
2018-06-07T12:00:57.696Z,38.23
2018-06-07T12:03:23.638Z,39.96
2018-06-07T12:05:49.588Z,37.45
2018-06-07T12:08:15.528Z,37.24
2018-06-07T12:10:41.492Z,39.32
2018-06-07T12:13:07.468Z,37.14
2018-06-07T12:15:33.440Z,40.18
2018-06-07T12:17:59.381Z,38.40
2018-06-07T12:20:25.363Z,39.43
2018-06-07T12:22:51.290Z,35.95
2018-06-07T12:25:17.284Z,35.46
2018-06-07T12:27:43.232Z,36.14
2018-06-07T12:30:09.193Z,38.38
2018-06-07T12:32:35.153Z,39.88
2018-06-07T12:35:01.301Z,38.48
2018-06-07T12:37:27.233Z,39.68
2018-06-07T12:39:53.261Z,39.67
2018-06-07T12:42:19.185Z,37.20
2018-06-07T12:44:45.136Z,39.71
2018-06-07T12:47:11.096Z,39.80
2018-06-07T12:49:37.059Z,39.33
2018-06-07T12:52:02.988Z,37.72
2018-06-07T12:54:29.315Z,39.47
2018-06-07T12:56:55.282Z,39.47
2018-06-07T12:59:21.254Z,39.04
2018-06-07T13:01:47.199Z,37.28
2018-06-07T13:04:13.159Z,36.05
2018-06-07T13:06:39.138Z,36.30
2018-06-07T13:09:05.116Z,38.97
2018-06-07T13:11:31.088Z,40.26
2018-06-07T13:13:57.088Z,40.34
2018-06-07T13:16:23.073Z,39.83
2018-06-07T13:18:49.031Z,40.31
2018-06-07T13:21:15.010Z,36.45
2018-06-07T13:23:40.957Z,37.49
2018-06-07T13:26:06.920Z,39.72
2018-06-07T13:28:32.897Z,39.80
2018-06-07T13:30:58.865Z,40.53
2018-06-07T13:33:24.809Z,40.70
2018-06-07T13:35:50.769Z,38.94
2018-06-07T13:38:16.699Z,37.93
2018-06-07T13:40:42.639Z,38.84
2018-06-07T13:43:08.625Z,37.38
2018-06-07T13:45:34.581Z,37.49
2018-06-07T13:48:00.533Z,38.53
2018-06-07T13:50:26.486Z,39.31
2018-06-07T13:52:52.460Z,38.65
2018-06-07T13:55:18.438Z,39.66
2018-06-07T13:57:44.409Z,39.39
2018-06-07T14:00:10.353Z,39.08
2018-06-07T14:02:36.287Z,41.31
2018-06-07T14:05:02.215Z,40.54
2018-06-07T14:07:28.198Z,39.20
2018-06-07T14:09:54.139Z,37.90
2018-06-07T14:12:20.131Z,38.80
2018-06-07T14:14:46.123Z,38.75
2018-06-07T14:17:12.066Z,39.54
2018-06-07T14:19:38.030Z,37.20
2018-06-07T14:22:03.986Z,34.85
2018-06-07T14:24:29.948Z,36.62
2018-06-07T14:26:55.939Z,39.04
2018-06-07T14:29:21.895Z,38.68
2018-06-07T14:31:47.849Z,35.02
2018-06-07T14:34:13.808Z,37.21
2018-06-07T14:36:39.802Z,37.97
2018-06-07T14:39:05.755Z,35.73
2018-06-07T14:41:31.706Z,37.12
2018-06-07T14:43:57.684Z,38.38
2018-06-07T14:46:23.673Z,39.39
2018-06-07T14:48:49.646Z,39.09
2018-06-07T14:51:15.595Z,38.86
2018-06-07T14:53:41.552Z,34.66
2018-06-07T14:56:07.542Z,35.77
2018-06-07T14:58:33.528Z,37.93
2018-06-07T15:00:59.452Z,39.39
2018-06-07T15:03:25.423Z,39.42
2018-06-07T15:05:51.390Z,39.53
2018-06-07T15:08:17.361Z,39.08
2018-06-07T15:10:43.331Z,39.98
2018-06-07T15:13:09.325Z,38.08
2018-06-07T15:15:35.289Z,39.37
2018-06-07T15:18:01.283Z,38.46
2018-06-07T15:20:27.276Z,38.59
2018-06-07T15:22:53.253Z,39.35
2018-06-07T15:25:19.350Z,38.58
2018-06-07T15:27:45.321Z,40.09
2018-06-07T15:30:11.269Z,38.74
2018-06-07T15:32:37.240Z,38.38
2018-06-07T15:35:03.180Z,36.20
2018-06-07T15:37:29.145Z,38.57
2018-06-07T15:39:55.082Z,38.62
2018-06-07T15:42:21.073Z,38.30
2018-06-07T15:44:47.060Z,35.92
2018-06-07T15:47:13.013Z,37.50
2018-06-07T15:49:39.016Z,38.60
2018-06-07T15:52:04.988Z,37.29
2018-06-07T15:54:30.947Z,38.20
2018-06-07T15:56:56.917Z,39.15
2018-06-07T15:59:22.887Z,39.95
2018-06-07T16:01:48.851Z,39.30
2018-06-07T16:04:14.822Z,39.43
2018-06-07T16:06:40.835Z,38.49
2018-06-07T16:09:06.807Z,39.45
2018-06-07T16:11:32.787Z,39.87
2018-06-07T16:13:58.900Z,39.27
2018-06-07T16:16:24.862Z,39.22
2018-06-07T16:18:50.843Z,39.31
2018-06-07T16:21:16.808Z,39.60
2018-06-07T16:23:42.775Z,39.21
2018-06-07T16:28:34.506Z,39.16
2018-06-07T16:31:00.450Z,38.98
2018-06-07T16:33:26.423Z,39.00
2018-06-07T16:35:52.363Z,38.90
2018-06-07T16:38:18.366Z,39.32
2018-06-07T16:40:44.327Z,39.16
2018-06-07T16:43:10.273Z,39.19
2018-06-07T16:45:36.228Z,38.92
2018-06-07T16:48:02.200Z,38.84
2018-06-07T16:50:28.182Z,39.78
2018-06-07T16:52:54.131Z,39.64
2018-06-07T16:55:20.086Z,39.41
2018-06-07T16:57:46.068Z,40.83
2018-06-07T17:00:12.047Z,40.41
2018-06-07T17:02:38.012Z,38.40
2018-06-07T17:05:03.977Z,38.43
2018-06-07T17:07:29.933Z,39.34
2018-06-07T17:09:55.980Z,38.99
2018-06-07T17:12:21.920Z,38.83
2018-06-07T17:14:47.905Z,39.66
2018-06-07T17:17:13.873Z,40.31
2018-06-07T17:19:39.825Z,38.86
2018-06-07T17:22:05.774Z,39.52
2018-06-07T17:24:31.762Z,39.96
2018-06-07T17:26:57.706Z,39.57
2018-06-07T17:29:23.673Z,39.83
2018-06-07T17:31:49.615Z,39.17
2018-06-07T17:34:15.552Z,39.61
2018-06-07T17:36:41.520Z,39.31
2018-06-07T17:39:07.476Z,39.39
2018-06-07T17:41:33.450Z,39.41
2018-06-07T17:43:59.415Z,38.45
2018-06-07T17:46:25.386Z,39.95
2018-06-07T17:48:51.346Z,39.58
2018-06-07T17:51:17.307Z,39.44
2018-06-07T17:53:43.303Z,41.54
2018-06-07T17:56:09.261Z,41.09
2018-06-07T17:58:35.245Z,39.99
2018-06-07T18:01:01.199Z,39.55
2018-06-07T18:03:27.189Z,41.07
2018-06-07T18:05:53.162Z,39.88
2018-06-07T18:08:19.143Z,40.16
2018-06-07T18:10:45.144Z,39.14
2018-06-07T18:13:11.165Z,39.47
2018-06-07T18:15:37.184Z,39.57
2018-06-07T18:18:03.164Z,40.47
2018-06-07T18:20:29.130Z,39.62
2018-06-07T18:22:55.080Z,40.71
2018-06-07T18:25:21.067Z,42.40
2018-06-07T18:27:47.058Z,41.47
2018-06-07T18:30:13.045Z,43.96
2018-06-07T18:32:39.014Z,41.86
2018-06-07T18:35:05.020Z,42.54
2018-06-07T18:37:31.022Z,41.97
2018-06-07T18:39:57.016Z,41.34
2018-06-07T18:42:22.963Z,41.28
2018-06-07T18:44:48.961Z,42.05
2018-06-07T18:47:15.046Z,42.40
2018-06-07T18:49:41.035Z,41.34
2018-06-07T18:52:06.996Z,41.82
2018-06-07T18:54:32.976Z,42.02
2018-06-07T18:56:59.003Z,41.47
2018-06-07T18:59:25.305Z,42.00
2018-06-07T19:01:51.301Z,41.64
2018-06-07T19:04:17.249Z,41.49
2018-06-07T19:06:43.292Z,41.00
2018-06-07T19:09:09.307Z,42.00
2018-06-07T19:11:35.317Z,43.07
2018-06-07T19:14:01.291Z,41.30
2018-06-07T19:16:27.276Z,40.97
2018-06-07T19:18:53.374Z,41.40
2018-06-07T19:21:19.822Z,41.62
2018-06-07T19:23:45.998Z,42.44
2018-06-07T19:26:11.971Z,41.56
2018-06-07T19:28:37.973Z,42.46
2018-06-07T19:31:03.998Z,41.14
2018-06-07T19:33:30.089Z,42.24
2018-06-07T19:35:56.152Z,40.77
2018-06-07T19:38:22.105Z,42.25
2018-06-07T19:40:48.131Z,41.78
2018-06-07T19:43:14.075Z,42.40
2018-06-07T19:45:40.035Z,41.91
2018-06-07T19:48:06.159Z,41.51
2018-06-07T19:50:32.102Z,42.62
2018-06-07T19:52:58.047Z,41.98
2018-06-07T19:55:24.104Z,42.50
2018-06-07T19:57:50.044Z,42.23
2018-06-07T20:00:16.016Z,42.58
2018-06-07T20:02:42.004Z,42.19
2018-06-07T20:05:07.954Z,43.16
2018-06-07T20:07:34.022Z,42.42
2018-06-07T20:10:00.016Z,43.74
2018-06-07T20:12:26.010Z,43.65
2018-06-07T20:14:51.980Z,43.69
2018-06-07T20:17:18.226Z,43.34
2018-06-07T20:19:44.186Z,43.56
2018-06-07T20:22:10.184Z,44.67
2018-06-07T20:24:36.147Z,43.13
2018-06-07T20:27:02.134Z,44.02
2018-06-07T20:29:28.071Z,44.14
2018-06-07T20:31:54.029Z,44.03
2018-06-07T20:34:20.006Z,43.68
2018-06-07T20:36:45.994Z,45.21
2018-06-07T20:39:12.119Z,45.20
2018-06-07T20:41:38.104Z,44.98
2018-06-07T20:44:04.050Z,44.91
2018-06-07T20:46:30.236Z,44.82
2018-06-07T20:48:56.254Z,45.73
2018-06-07T20:51:22.238Z,45.64
2018-06-07T20:53:48.367Z,44.74
2018-06-07T20:56:14.421Z,44.15
2018-06-07T20:58:40.417Z,46.08
2018-06-07T21:01:06.420Z,46.45
2018-06-07T21:03:32.380Z,44.78
2018-06-07T21:05:58.440Z,45.85
2018-06-07T21:08:24.427Z,45.79
2018-06-07T21:10:50.401Z,46.81
2018-06-07T21:13:16.377Z,46.99
2018-06-07T21:15:42.514Z,47.94
2018-06-07T21:18:08.677Z,47.84
2018-06-07T21:20:34.638Z,47.28
2018-06-07T21:23:00.692Z,47.44
2018-06-07T21:25:26.723Z,47.33
2018-06-07T21:27:52.852Z,48.08
2018-06-07T21:30:18.863Z,48.42
2018-06-07T21:32:44.842Z,47.75
2018-06-07T21:35:10.902Z,49.09
2018-06-07T21:37:36.863Z,47.79
2018-06-07T21:40:02.917Z,47.83
2018-06-07T21:42:28.919Z,48.50
2018-06-07T21:44:54.925Z,48.85
2018-06-07T21:47:20.970Z,48.24
2018-06-07T21:49:46.986Z,48.99
2018-06-07T21:52:12.979Z,48.60
2018-06-07T21:54:38.975Z,48.50
2018-06-07T21:57:05.003Z,48.92
2018-06-07T21:59:31.082Z,49.81
2018-06-07T22:01:57.052Z,49.51
2018-06-07T22:04:23.108Z,50.15
2018-06-07T22:06:49.154Z,48.57
2018-06-07T22:09:15.190Z,49.40
2018-06-07T22:11:41.192Z,49.05
2018-06-07T22:14:07.174Z,50.19
2018-06-07T22:16:33.180Z,50.43
2018-06-07T22:18:59.192Z,50.26
2018-06-07T22:21:25.177Z,51.06
2018-06-07T22:23:51.171Z,50.05
2018-06-07T22:26:17.125Z,50.61
2018-06-07T22:28:43.080Z,51.37
2018-06-07T22:31:09.054Z,51.81
2018-06-07T22:33:35.010Z,52.12
2018-06-07T22:36:01.090Z,52.31
2018-06-07T22:38:27.095Z,51.60
2018-06-07T22:40:53.058Z,51.81
2018-06-07T22:43:19.117Z,52.71
2018-06-07T22:45:45.110Z,51.44
2018-06-07T22:48:11.065Z,52.56
2018-06-07T22:50:37.134Z,52.61
2018-06-07T22:53:03.113Z,51.93
2018-06-07T22:55:29.060Z,52.57
2018-06-07T22:57:55.022Z,51.95
2018-06-07T23:00:20.986Z,52.46
2018-06-07T23:02:46.953Z,51.87
2018-06-07T23:05:12.961Z,52.25
2018-06-07T23:07:38.911Z,52.05
2018-06-07T23:10:04.888Z,53.45
2018-06-07T23:12:30.909Z,52.99
2018-06-07T23:14:56.947Z,52.56
2018-06-07T23:17:22.951Z,52.91
2018-06-07T23:19:48.981Z,52.84
2018-06-07T23:22:14.988Z,53.12
2018-06-07T23:24:41.006Z,53.33
2018-06-07T23:27:06.998Z,53.32
2018-06-07T23:29:33.050Z,53.57
2018-06-07T23:31:59.013Z,52.76
2018-06-07T23:34:25.045Z,53.32
2018-06-07T23:36:51.146Z,53.17
2018-06-07T23:39:17.110Z,53.06
2018-06-07T23:41:43.048Z,52.62
2018-06-07T23:44:09.013Z,52.71
2018-06-07T23:46:34.977Z,52.49
2018-06-07T23:49:00.959Z,52.24
2018-06-07T23:51:26.957Z,52.24
2018-06-07T23:53:52.924Z,52.88
2018-06-07T23:56:18.884Z,52.78
2018-06-07T23:58:44.890Z,52.64
